Time;durP1;ratioP1;P1;durP2;ratioP2;P2;SDS_P1;SDS_P2;PMS_P1;PMS_P2;Temp;Humidity;BMP_temperature;BMP_pressure;BME280_temperature;BME280_humidity;BME280_pressure;Samples;Min_cycle;Max_cycle;Signal;HPM_P1;HPM_P2
2021/03/31 00:00:20;;;;;;;34.75;17.00;;;;;;;5.18;55.49;100582.73;1801317;79;21141;-65
2021/03/31 00:02:51;;;;;;;43.13;16.73;;;;;;;5.21;55.74;100585.45;1801429;79;21117;-65
2021/03/31 00:05:19;;;;;;;36.65;16.60;;;;;;;5.23;55.24;100585.48;1774885;79;21403;-66
2021/03/31 00:07:47;;;;;;;33.83;15.63;;;;;;;5.24;55.14;100583.58;1801351;79;21898;-66
2021/03/31 00:10:28;;;;;;;36.13;16.75;;;;;;;5.25;54.98;100584.69;1801391;79;21287;-66
2021/03/31 00:12:56;;;;;;;35.80;16.70;;;;;;;5.26;54.57;100584.14;1801679;79;21443;-66
2021/03/31 00:15:23;;;;;;;32.85;15.72;;;;;;;5.30;54.85;100586.64;1801351;79;21872;-66
2021/03/31 00:17:54;;;;;;;30.57;15.85;;;;;;;5.33;54.97;100586.13;1799490;79;21334;-66
2021/03/31 00:20:22;;;;;;;33.88;15.65;;;;;;;5.33;54.97;100586.13;1801424;79;21152;-66
2021/03/31 00:22:50;;;;;;;39.40;16.02;;;;;;;5.34;54.81;100585.59;1801299;79;21101;-66
2021/03/31 00:25:18;;;;;;;33.33;15.43;;;;;;;5.34;54.86;100580.97;1801319;79;21120;-66
2021/03/31 00:27:46;;;;;;;33.53;15.43;;;;;;;5.33;54.23;100574.42;1801401;79;21395;-66
2021/03/31 00:30:15;;;;;;;40.52;16.48;;;;;;;5.31;54.44;100572.77;1801331;79;21462;-65
2021/03/31 00:32:43;;;;;;;35.52;15.98;;;;;;;5.31;54.44;100572.77;1801277;79;21139;-65
2021/03/31 00:35:12;;;;;;;36.25;16.05;;;;;;;5.30;54.91;100570.30;1801318;79;21112;-65
2021/03/31 00:37:40;;;;;;;31.90;14.73;;;;;;;5.30;55.00;100571.66;1801552;79;21460;-66
2021/03/31 00:40:12;;;;;;;32.55;14.55;;;;;;;5.30;54.70;100568.94;1801403;79;21144;-66
2021/03/31 00:42:39;;;;;;;32.98;15.18;;;;;;;5.30;54.83;100570.30;1801345;79;21201;-67
2021/03/31 00:45:08;;;;;;;30.77;14.18;;;;;;;5.27;54.82;100563.47;1801198;79;21136;-67
2021/03/31 00:47:36;;;;;;;36.88;15.93;;;;;;;5.28;54.94;100568.38;1800609;79;21890;-67
2021/03/31 00:50:08;;;;;;;35.75;15.75;;;;;;;5.27;55.12;100563.47;1801262;79;21383;-67
2021/03/31 00:52:37;;;;;;;41.10;15.70;;;;;;;5.26;55.32;100561.83;1801468;79;21152;-66
2021/03/31 00:55:07;;;;;;;39.88;15.75;;;;;;;5.26;55.23;100560.47;1774793;79;21333;-66
2021/03/31 00:57:36;;;;;;;34.35;15.72;;;;;;;5.25;55.39;100554.73;1774410;79;21934;-66
2021/03/31 01:00:05;;;;;;;33.67;14.93;;;;;;;5.27;55.61;100548.50;1774518;79;21129;-67
2021/03/31 01:02:33;;;;;;;31.42;15.20;;;;;;;5.27;55.61;100548.50;1801405;79;21148;-67
2021/03/31 01:05:00;;;;;;;31.10;15.18;;;;;;;5.27;55.49;100547.67;1801278;79;21162;-66
2021/03/31 01:07:28;;;;;;;38.45;16.00;;;;;;;5.24;55.48;100546.28;1801472;79;22647;-66
2021/03/31 01:09:56;;;;;;;42.40;15.80;;;;;;;5.24;55.73;100544.10;1774074;79;21902;-66
2021/03/31 01:12:55;;;;;;;38.20;17.32;;;;;;;5.23;55.67;100544.64;1801397;79;21316;-66
2021/03/31 01:15:36;;;;;;;47.55;17.92;;;;;;;5.23;55.81;100544.64;1801397;79;21864;-66
2021/03/31 01:18:23;;;;;;;39.75;17.60;;;;;;;5.19;56.07;100536.73;1801425;79;21160;-66
2021/03/31 01:21:21;;;;;;;38.38;16.05;;;;;;;5.21;56.27;100539.99;1801303;79;21278;-66
2021/03/31 01:24:42;;;;;;;38.50;16.62;;;;;;;5.22;56.34;100539.45;1801222;79;21158;-66
2021/03/31 01:27:43;;;;;;;36.08;16.48;;;;;;;5.21;56.00;100544.08;1801210;79;21874;-67
2021/03/31 01:30:45;;;;;;;43.87;17.23;;;;;;;5.21;56.00;100544.08;1759349;79;21105;-67
2021/03/31 01:33:42;;;;;;;33.20;15.68;;;;;;;5.18;56.23;100533.73;1800872;79;21411;-67
2021/03/31 01:36:16;;;;;;;33.78;16.12;;;;;;;5.18;56.17;100528.28;1801338;79;21359;-68
2021/03/31 01:38:49;;;;;;;33.67;14.80;;;;;;;5.18;56.17;100528.28;1801531;79;21029;-68
2021/03/31 01:41:18;;;;;;;30.37;14.25;;;;;;;5.18;56.53;100524.74;1800989;79;21399;-68
2021/03/31 01:43:49;;;;;;;29.48;13.68;;;;;;;5.15;55.99;100523.35;1801626;79;21124;-68
2021/03/31 01:46:19;;;;;;;30.00;14.43;;;;;;;5.12;56.02;100518.96;1801665;79;21136;-68
2021/03/31 01:48:47;;;;;;;27.82;14.53;;;;;;;5.08;56.28;100518.65;1777141;79;21633;-68
2021/03/31 01:51:14;;;;;;;43.23;15.28;;;;;;;5.05;56.63;100516.44;1801469;79;21044;-68
2021/03/31 01:53:43;;;;;;;30.75;14.28;;;;;;;5.02;56.94;100516.95;1777485;79;21290;-68
2021/03/31 01:56:11;;;;;;;28.90;15.15;;;;;;;5.00;56.79;100517.74;1801545;79;21113;-68
2021/03/31 01:58:39;;;;;;;35.65;14.68;;;;;;;4.97;56.72;100507.36;1801578;79;21395;-68
2021/03/31 02:01:07;;;;;;;32.25;14.30;;;;;;;4.94;57.00;100503.26;1801693;79;22123;-68
2021/03/31 02:03:35;;;;;;;29.30;14.20;;;;;;;4.90;57.02;100502.13;1776988;79;21136;-68
2021/03/31 02:06:05;;;;;;;33.48;14.93;;;;;;;4.88;57.25;100506.99;1801779;79;21286;-68
2021/03/31 02:08:33;;;;;;;30.15;14.25;;;;;;;4.88;57.43;100505.64;1777300;79;21245;-68
2021/03/31 02:11:03;;;;;;;30.48;14.40;;;;;;;4.88;57.72;100502.09;1799275;79;21135;-68
2021/03/31 02:13:31;;;;;;;33.33;14.18;;;;;;;4.86;58.19;100502.88;1801874;79;22028;-68
2021/03/31 02:16:00;;;;;;;31.60;14.95;;;;;;;4.86;58.19;100502.88;1801746;79;20966;-68
2021/03/31 02:18:32;;;;;;;33.42;15.88;;;;;;;4.83;59.10;100497.95;1801775;79;21874;-67
2021/03/31 02:20:59;;;;;;;31.40;13.90;;;;;;;4.81;59.68;100498.75;1801733;79;21426;-67
2021/03/31 02:23:28;;;;;;;31.02;16.20;;;;;;;4.77;59.83;100497.61;1801703;79;21132;-68
2021/03/31 02:25:57;;;;;;;36.25;17.05;;;;;;;4.77;59.83;100497.61;1777250;79;21701;-68
2021/03/31 02:28:25;;;;;;;29.30;13.72;;;;;;;4.79;60.34;100497.64;1801766;79;21116;-68
2021/03/31 02:30:52;;;;;;;33.00;16.42;;;;;;;4.79;60.75;100499.53;1801745;79;20982;-68
2021/03/31 02:33:20;;;;;;;34.58;16.15;;;;;;;4.79;60.91;100496.28;1801756;79;21903;-67
2021/03/31 02:35:49;;;;;;;27.13;14.40;;;;;;;4.78;61.25;100495.17;1801742;79;21211;-67
2021/03/31 02:38:17;;;;;;;39.33;15.98;;;;;;;4.83;61.76;100496.59;1801755;79;22643;-68
2021/03/31 02:40:47;;;;;;;32.78;14.80;;;;;;;4.84;61.63;100496.88;1801611;79;21160;-68
2021/03/31 02:43:17;;;;;;;35.78;15.55;;;;;;;4.85;61.84;100496.62;1801864;79;21100;-68
2021/03/31 02:45:47;;;;;;;37.38;16.82;;;;;;;4.85;61.81;100493.08;1801731;79;21146;-67
2021/03/31 02:48:17;;;;;;;30.50;15.32;;;;;;;4.83;62.18;100485.70;1801973;79;21437;-68
2021/03/31 02:50:46;;;;;;;33.05;16.75;;;;;;;4.83;62.19;100487.07;1777307;79;22180;-68
2021/03/31 02:53:15;;;;;;;32.83;15.53;;;;;;;4.79;62.45;100485.94;1801737;79;21447;-68
2021/03/31 02:55:44;;;;;;;33.55;17.25;;;;;;;4.78;62.51;100485.66;1801725;79;21022;-68
2021/03/31 02:58:12;;;;;;;37.38;16.23;;;;;;;4.72;62.39;100479.33;1801670;79;21109;-68
2021/03/31 03:00:40;;;;;;;29.25;14.53;;;;;;;4.69;62.66;100479.02;1801783;79;21421;-68
2021/03/31 03:03:09;;;;;;;35.30;15.93;;;;;;;4.66;62.74;100470.83;1801773;79;21390;-68
2021/03/31 03:05:37;;;;;;;36.00;16.05;;;;;;;4.61;62.39;100470.26;1801658;79;21140;-67
2021/03/31 03:08:05;;;;;;;36.98;15.80;;;;;;;4.61;62.39;100470.26;1801892;79;21320;-68
2021/03/31 03:10:33;;;;;;;38.20;16.35;;;;;;;4.58;62.35;100480.82;1801706;79;21120;-68
2021/03/31 03:13:02;;;;;;;48.08;17.12;;;;;;;4.58;62.35;100480.82;1801798;79;21133;-68
2021/03/31 03:15:32;;;;;;;34.73;15.32;;;;;;;4.57;62.51;100484.08;1801700;79;21113;-68
2021/03/31 03:17:59;;;;;;;31.45;14.73;;;;;;;4.58;62.42;100487.08;1801611;79;21128;-69
2021/03/31 03:20:27;;;;;;;40.33;16.10;;;;;;;4.60;62.42;100480.85;1801675;79;21116;-68
2021/03/31 03:22:55;;;;;;;34.33;13.68;;;;;;;4.59;62.39;100481.92;1801742;79;21878;-66
2021/03/31 03:25:25;;;;;;;38.50;17.05;;;;;;;4.59;62.46;100480.56;1777120;79;21116;-66
2021/03/31 03:27:53;;;;;;;34.40;15.80;;;;;;;4.58;62.30;100482.18;1801782;79;21347;-66
2021/03/31 03:30:23;;;;;;;29.37;15.83;;;;;;;4.55;62.42;100475.35;1801665;79;21156;-66
2021/03/31 03:32:51;;;;;;;37.38;15.32;;;;;;;4.54;62.72;100472.88;1801776;79;21153;-66
2021/03/31 03:35:22;;;;;;;32.88;15.10;;;;;;;4.52;62.85;100475.86;1801770;79;21143;-66
2021/03/31 03:37:52;;;;;;;37.30;16.23;;;;;;;4.53;63.15;100467.16;1777550;79;21132;-67
2021/03/31 03:40:23;;;;;;;34.38;15.32;;;;;;;4.53;63.15;100467.16;1801747;79;21912;-66
2021/03/31 03:42:52;;;;;;;29.23;15.75;;;;;;;4.54;63.21;100476.97;1801620;79;21417;-67
2021/03/31 03:45:22;;;;;;;39.42;16.57;;;;;;;4.50;63.64;100468.48;1777046;79;20990;-67
2021/03/31 03:47:52;;;;;;;32.08;16.80;;;;;;;4.49;63.78;100472.28;1801948;79;21839;-68
2021/03/31 03:50:20;;;;;;;32.93;14.63;;;;;;;4.46;63.92;100468.71;1776883;79;21427;-68
2021/03/31 03:52:49;;;;;;;33.30;15.55;;;;;;;4.43;64.01;100471.94;1801708;79;21359;-67
2021/03/31 03:55:22;;;;;;;31.73;15.23;;;;;;;4.38;64.36;100462.35;1801594;79;21143;-66
2021/03/31 03:57:50;;;;;;;28.75;14.13;;;;;;;4.39;64.58;100457.73;1801671;79;21100;-66
2021/03/31 04:00:24;;;;;;;35.45;16.30;;;;;;;4.38;64.42;100461.53;1801786;79;21830;-67
2021/03/31 04:02:54;;;;;;;38.73;17.20;;;;;;;4.34;64.84;100454.41;1801775;79;21376;-67
2021/03/31 04:05:23;;;;;;;34.27;16.30;;;;;;;4.32;65.23;100451.13;1801626;79;22392;-67
2021/03/31 04:07:52;;;;;;;34.45;17.40;;;;;;;4.31;65.28;100451.66;1801577;79;21168;-67
2021/03/31 04:10:23;;;;;;;40.28;17.57;;;;;;;4.29;65.48;100444.30;1801704;79;21827;-68
2021/03/31 04:12:53;;;;;;;35.23;16.62;;;;;;;4.28;66.07;100435.04;1801574;79;20967;-67
2021/03/31 04:15:22;;;;;;;35.08;17.52;;;;;;;4.32;66.07;100436.17;1777291;79;21116;-67
2021/03/31 04:17:50;;;;;;;33.83;17.05;;;;;;;4.33;66.14;100443.26;1801764;79;21124;-67
2021/03/31 04:20:23;;;;;;;34.80;15.85;;;;;;;4.33;66.31;100442.44;1792173;79;21737;-67
2021/03/31 04:22:53;;;;;;;31.30;15.48;;;;;;;4.31;66.53;100445.41;1743109;82;21872;-67
2021/03/31 04:25:24;;;;;;;35.98;15.53;;;;;;;4.30;66.76;100451.91;1722217;83;21932;-67
2021/03/31 04:27:54;;;;;;;32.67;15.57;;;;;;;4.35;66.87;100445.72;1745743;80;21143;-70
2021/03/31 04:30:23;;;;;;;39.80;17.40;;;;;;;4.35;67.02;100445.19;1743033;82;21414;-68
2021/03/31 04:32:52;;;;;;;33.10;17.15;;;;;;;4.39;67.15;100456.38;1722221;83;21132;-68
2021/03/31 04:35:21;;;;;;;39.60;18.48;;;;;;;4.42;67.29;100443.64;1718263;82;21278;-69
2021/03/31 04:37:52;;;;;;;42.13;19.62;;;;;;;4.42;67.29;100443.64;1720533;82;21139;-68
2021/03/31 04:40:20;;;;;;;46.68;21.48;;;;;;;4.42;67.37;100443.64;1717818;83;21941;-66
2021/03/31 04:42:48;;;;;;;41.18;20.48;;;;;;;4.44;67.58;100443.67;1716235;83;21423;-67
2021/03/31 04:45:17;;;;;;;41.23;21.30;;;;;;;4.47;67.53;100449.14;1716167;83;21150;-68
2021/03/31 04:47:46;;;;;;;40.58;21.77;;;;;;;4.45;67.55;100448.57;1716139;83;21158;-67
2021/03/31 04:50:15;;;;;;;37.53;19.32;;;;;;;4.46;67.79;100452.94;1716133;83;21383;-69
2021/03/31 04:52:43;;;;;;;35.10;19.23;;;;;;;4.48;67.82;100454.33;1716303;83;21145;-68
2021/03/31 04:55:12;;;;;;;34.83;17.15;;;;;;;4.50;67.84;100452.17;1716119;83;21321;-68
2021/03/31 05:01:05;;;;;;;32.65;16.23;;;;;;;4.57;68.11;100446.00;1716175;83;21012;-67
2021/03/31 05:03:33;;;;;;;29.50;15.65;;;;;;;4.57;68.11;100446.00;1716108;83;21147;-68
2021/03/31 05:06:01;;;;;;;39.67;18.52;;;;;;;4.60;68.40;100443.31;1716159;83;21853;-67
2021/03/31 05:08:30;;;;;;;33.78;18.17;;;;;;;4.62;68.57;100444.67;1715949;83;21611;-68
2021/03/31 05:10:57;;;;;;;43.05;20.62;;;;;;;4.64;68.49;100442.52;1715997;83;21917;-68
2021/03/31 05:13:26;;;;;;;37.42;18.80;;;;;;;4.69;68.53;100451.28;1717944;83;21432;-70
2021/03/31 05:15:54;;;;;;;41.05;21.75;;;;;;;4.74;68.42;100445.89;1717914;83;21202;-68
2021/03/31 05:18:23;;;;;;;35.63;17.20;;;;;;;4.79;68.27;100450.57;1717927;83;21470;-68
2021/03/31 05:20:50;;;;;;;38.95;18.95;;;;;;;4.79;68.36;100454.65;1717939;83;21576;-67
2021/03/31 05:23:17;;;;;;;34.73;16.02;;;;;;;4.78;68.38;100453.01;1717892;83;21155;-68
2021/03/31 05:25:45;;;;;;;34.78;16.40;;;;;;;4.78;68.38;100453.01;1717964;83;21182;-68
2021/03/31 05:28:12;;;;;;;37.50;18.82;;;;;;;4.77;68.45;100450.00;1717918;83;21310;-68
2021/03/31 05:30:40;;;;;;;42.53;20.35;;;;;;;4.74;68.44;100454.05;1718019;83;21837;-70
2021/03/31 05:33:07;;;;;;;41.08;20.35;;;;;;;4.76;68.69;100459.24;1717999;83;22680;-68
2021/03/31 05:35:36;;;;;;;34.23;19.00;;;;;;;4.76;68.69;100459.24;1716011;83;21036;-66
2021/03/31 05:38:05;;;;;;;47.65;21.35;;;;;;;4.79;68.69;100454.11;1721649;82;21135;-68
2021/03/31 05:40:33;;;;;;;48.48;21.65;;;;;;;4.80;68.69;100453.57;1740173;82;21138;-70
2021/03/31 05:43:01;;;;;;;36.10;19.52;;;;;;;4.82;68.80;100453.60;1740233;82;21136;-70
2021/03/31 05:45:28;;;;;;;35.17;18.50;;;;;;;4.86;68.99;100456.63;1709380;83;23455;-66
2021/03/31 05:47:58;;;;;;;37.00;17.75;;;;;;;4.92;68.73;100456.43;1713078;82;21852;-66
2021/03/31 05:50:27;;;;;;;34.40;18.80;;;;;;;4.96;68.66;100458.92;1683285;83;21638;-66
2021/03/31 05:52:55;;;;;;;38.63;20.35;;;;;;;5.01;68.76;100452.72;1713317;82;21486;-68
2021/03/31 05:55:23;;;;;;;37.13;20.65;;;;;;;5.08;68.59;100456.05;1709360;83;21150;-67
2021/03/31 05:57:52;;;;;;;44.98;21.15;;;;;;;5.12;68.56;100450.91;1740223;82;21397;-66
2021/03/31 06:00:23;;;;;;;47.80;23.98;;;;;;;5.20;68.52;100454.53;1740275;82;21406;-66
2021/03/31 06:02:51;;;;;;;56.50;29.50;;;;;;;5.26;68.42;100448.84;1709445;83;21853;-66
2021/03/31 06:05:23;;;;;;;44.83;22.70;;;;;;;5.38;68.28;100453.30;1740290;82;21146;-66
2021/03/31 06:07:50;;;;;;;43.92;21.50;;;;;;;5.46;68.38;100443.30;1709390;83;21909;-67
2021/03/31 06:10:26;;;;;;;35.98;18.07;;;;;;;5.50;68.06;100438.97;1740111;82;21008;-67
2021/03/31 06:13:02;;;;;;;34.20;19.10;;;;;;;5.56;67.91;100440.11;1708827;83;21422;-67
2021/03/31 06:15:42;;;;;;;35.35;19.30;;;;;;;5.62;67.70;100434.16;1740243;82;21127;-69
2021/03/31 06:18:14;;;;;;;37.38;20.25;;;;;;;5.62;67.70;100434.16;1709450;83;21867;-67
2021/03/31 06:20:57;;;;;;;;;;;;;;;5.59;67.63;100427.33;1742806;82;21853;-67
2021/03/31 06:26:31;;;;;;;80.42;36.38;;;;;;;5.52;68.26;100430.81;1740187;82;21443;-66
2021/03/31 06:29:08;;;;;;;98.00;42.88;;;;;;;5.53;68.56;100418.02;1709260;83;21168;-66
2021/03/31 06:31:44;;;;;;;57.13;28.00;;;;;;;5.53;68.66;100415.30;1711323;82;21126;-66
2021/03/31 06:34:16;;;;;;;55.80;29.18;;;;;;;5.55;68.76;100412.59;1714246;82;21864;-66
2021/03/31 06:36:50;;;;;;;;;;;;;;;5.63;68.94;100407.20;1711889;83;21508;-66
2021/03/31 06:39:30;;;;;;;100.55;45.75;;;;;;;5.70;68.74;100404.25;1717528;83;21045;-66
2021/03/31 06:42:19;;;;;;;54.85;27.02;;;;;;;5.75;68.94;100409.73;1718720;82;21915;-65
2021/03/31 06:47:38;;;;;;;77.67;41.50;;;;;;;5.95;68.65;100410.67;1727696;82;21163;-66
2021/03/31 06:50:07;;;;;;;47.05;24.40;;;;;;;6.13;68.23;100412.14;1713672;83;21431;-65
2021/03/31 06:52:57;;;;;;;48.65;25.82;;;;;;;6.20;68.21;100403.72;1727549;82;21387;-66
2021/03/31 06:55:28;;;;;;;53.35;25.82;;;;;;;6.20;68.21;100403.72;1727686;82;21135;-66
2021/03/31 06:57:57;;;;;;;45.98;23.95;;;;;;;6.27;67.82;100399.66;1727575;82;21434;-67
2021/03/31 07:00:45;;;;;;;41.90;22.35;;;;;;;6.30;67.48;100398.31;1727659;82;21440;-66
2021/03/31 07:03:13;;;;;;;46.42;23.60;;;;;;;6.38;67.89;100405.95;1727538;81;21382;-68
2021/03/31 07:05:42;;;;;;;41.88;20.88;;;;;;;6.49;67.76;100398.62;1727400;82;21830;-67
2021/03/31 07:08:15;;;;;;;43.75;23.80;;;;;;;6.58;67.16;100397.83;1727659;82;21131;-67
2021/03/31 07:10:49;;;;;;;36.55;20.15;;;;;;;6.64;66.99;100391.84;1727603;82;21469;-66
2021/03/31 07:13:34;;;;;;;46.13;25.32;;;;;;;6.74;67.13;100396.52;1727689;82;21162;-68
2021/03/31 07:16:06;;;;;;;53.00;29.55;;;;;;;6.85;66.79;100395.44;1723771;82;21359;-67
2021/03/31 07:18:35;;;;;;;46.65;26.73;;;;;;;6.92;66.41;100394.64;1727533;82;21308;-66
2021/03/31 07:21:04;;;;;;;55.85;30.23;;;;;;;6.99;66.46;100391.06;1700874;82;21881;-67
2021/03/31 07:23:32;;;;;;;68.00;33.70;;;;;;;7.10;66.32;100394.08;1727646;82;21442;-69
2021/03/31 07:29:39;;;;;;;39.30;21.20;;;;;;;7.35;66.23;100384.26;1729450;82;21148;-67
2021/03/31 07:32:08;;;;;;;37.17;21.90;;;;;;;7.52;64.99;100380.66;1727483;82;21421;-65
2021/03/31 07:34:38;;;;;;;47.60;22.42;;;;;;;7.56;65.03;100383.13;1727621;82;21434;-65
2021/03/31 07:37:07;;;;;;;53.78;24.40;;;;;;;7.63;64.99;100375.45;1727518;82;21147;-69
2021/03/31 07:39:35;;;;;;;41.25;22.50;;;;;;;7.67;64.95;100382.02;1745331;80;21430;-68
2021/03/31 07:42:05;;;;;;;46.63;23.67;;;;;;;7.71;65.04;100375.45;1723060;82;21287;-68
2021/03/31 07:44:33;;;;;;;44.27;23.30;;;;;;;7.77;65.02;100373.80;1747979;82;21877;-66
2021/03/31 07:47:01;;;;;;;40.52;22.20;;;;;;;7.84;64.92;100378.42;1748118;82;21134;-67
2021/03/31 07:49:29;;;;;;;39.65;22.15;;;;;;;7.91;65.06;100370.75;1748075;82;21468;-67
2021/03/31 07:52:01;;;;;;;47.13;23.42;;;;;;;7.93;64.33;100368.56;1748092;82;21131;-67
2021/03/31 07:54:29;;;;;;;42.30;23.83;;;;;;;7.94;64.56;100368.02;1747991;82;21416;-67
2021/03/31 07:56:58;;;;;;;42.10;23.85;;;;;;;7.98;64.58;100364.17;1722326;82;21166;-67
2021/03/31 07:59:26;;;;;;;41.88;21.97;;;;;;;8.01;64.66;100362.25;1748037;81;21845;-68
2021/03/31 08:01:58;;;;;;;40.78;21.75;;;;;;;8.06;64.63;100360.31;1748087;82;21177;-67
2021/03/31 08:04:27;;;;;;;38.90;21.85;;;;;;;8.14;64.96;100358.89;1748366;82;21498;-67
2021/03/31 08:07:00;;;;;;;47.80;23.55;;;;;;;8.21;64.78;100354.75;1748027;82;21938;-66
2021/03/31 08:09:30;;;;;;;41.23;22.52;;;;;;;8.29;64.86;100357.45;1747968;82;21147;-67
2021/03/31 08:12:04;;;;;;;41.65;24.47;;;;;;;8.42;65.07;100354.14;1748108;82;21442;-67
2021/03/31 08:14:36;;;;;;;42.98;23.95;;;;;;;8.64;65.26;100356.48;1748093;82;21143;-67
2021/03/31 08:20:44;;;;;;;42.33;24.12;;;;;;;9.01;64.20;100351.00;1748127;82;20997;-67
2021/03/31 08:23:12;;;;;;;45.85;23.87;;;;;;;9.24;63.56;100343.42;1748191;82;21174;-68
2021/03/31 08:25:42;;;;;;;41.45;23.90;;;;;;;9.37;63.02;100344.65;1744785;82;21417;-67
2021/03/31 08:28:10;;;;;;;46.65;24.25;;;;;;;9.46;62.32;100342.92;1747978;81;21123;-67
2021/03/31 08:30:39;;;;;;;49.18;24.50;;;;;;;9.49;61.67;100343.71;1748135;82;21873;-67
2021/03/31 08:33:09;;;;;;;44.45;25.43;;;;;;;9.46;61.70;100341.55;1748155;82;21441;-66
2021/03/31 08:35:39;;;;;;;42.95;24.92;;;;;;;9.46;61.61;100338.80;1747950;82;21145;-65
2021/03/31 08:38:15;;;;;;;49.63;25.45;;;;;;;9.49;61.51;100339.05;1746981;80;21206;-66
2021/03/31 08:40:45;;;;;;;55.15;25.30;;;;;;;9.54;61.24;100336.81;1770678;80;21450;-67
2021/03/31 08:43:14;;;;;;;48.48;24.10;;;;;;;9.60;61.54;100335.66;1712051;80;21122;-67
2021/03/31 08:45:43;;;;;;;48.15;24.92;;;;;;;9.69;61.76;100331.17;1757968;79;21027;-67
2021/03/31 08:48:11;;;;;;;45.60;23.62;;;;;;;9.77;61.58;100319.56;1770741;80;21164;-68
2021/03/31 08:50:40;;;;;;;47.10;23.65;;;;;;;9.87;61.20;100321.34;1738529;82;21902;-66
2021/03/31 08:53:11;;;;;;;43.25;23.80;;;;;;;9.97;60.35;100321.23;1770834;80;21326;-66
2021/03/31 08:55:41;;;;;;;45.85;26.05;;;;;;;9.99;60.12;100325.05;1770644;80;21183;-67
2021/03/31 08:58:11;;;;;;;48.02;25.25;;;;;;;10.04;60.09;100320.88;1770658;80;22380;-65
2021/03/31 09:00:51;;;;;;;39.48;22.87;;;;;;;10.11;59.97;100318.59;1767343;80;21466;-65
2021/03/31 09:03:19;;;;;;;44.45;24.67;;;;;;;10.19;60.06;100320.69;1745027;80;21039;-65
2021/03/31 09:06:01;;;;;;;41.15;23.32;;;;;;;10.24;59.48;100322.02;1741445;82;21191;-65
2021/03/31 09:08:30;;;;;;;39.92;23.12;;;;;;;10.28;59.59;100313.46;1811949;79;21439;-67
2021/03/31 09:11:03;;;;;;;43.80;22.50;;;;;;;10.36;59.53;100323.78;1772320;80;21430;-67
2021/03/31 09:13:34;;;;;;;43.80;24.87;;;;;;;10.46;59.41;100315.93;1770794;80;21327;-65
2021/03/31 09:16:13;;;;;;;40.25;23.57;;;;;;;10.59;59.13;100316.02;1738723;82;21156;-66
2021/03/31 09:18:42;;;;;;;46.28;23.92;;;;;;;10.69;58.75;100318.34;1770696;80;21120;-66
2021/03/31 09:21:12;;;;;;;42.70;24.12;;;;;;;10.78;58.78;100311.07;1770901;80;21916;-67
2021/03/31 09:27:12;;;;;;;44.18;23.85;;;;;;;11.04;58.89;100310.08;1772727;80;21895;-76
2021/03/31 09:29:43;;;;;;;38.90;23.60;;;;;;;11.10;57.98;100300.64;1772808;80;21121;-69
2021/03/31 09:32:15;;;;;;;44.42;23.27;;;;;;;11.15;58.23;100299.99;1770675;80;21165;-72
2021/03/31 09:34:48;;;;;;;49.88;24.75;;;;;;;11.24;58.11;100294.63;1772612;80;21142;-70
2021/03/31 09:37:19;;;;;;;42.53;22.80;;;;;;;11.35;57.68;100294.70;1772586;80;21423;-74
2021/03/31 09:40:06;;;;;;;35.30;20.43;;;;;;;11.45;57.33;100284.08;1772624;80;21192;-69
2021/03/31 09:43:03;;;;;;;76.17;38.60;;;;;;;11.56;56.92;100290.42;1770836;80;21014;-69
2021/03/31 09:45:34;;;;;;;45.95;24.00;;;;;;;11.64;56.67;100291.66;1770666;80;21136;-69
2021/03/31 09:48:04;;;;;;;46.73;23.00;;;;;;;11.71;56.60;100284.37;1770847;80;21105;-69
2021/03/31 09:50:35;;;;;;;38.70;22.82;;;;;;;11.77;56.19;100285.94;1770775;80;21365;-70
2021/03/31 09:53:07;;;;;;;39.23;22.75;;;;;;;11.79;56.28;100281.77;1770691;80;21148;-71
2021/03/31 09:55:37;;;;;;;35.48;23.15;;;;;;;11.84;56.33;100282.22;1772769;80;21132;-76
2021/03/31 09:58:05;;;;;;;38.88;22.13;;;;;;;11.89;55.95;100282.94;1771069;80;21863;-71
2021/03/31 10:00:38;;;;;;;38.38;21.48;;;;;;;11.94;55.97;100278.45;1742704;80;21155;-72
2021/03/31 10:03:08;;;;;;;41.13;23.67;;;;;;;11.99;56.05;100279.16;1770793;80;22657;-74
2021/03/31 10:05:36;;;;;;;35.60;22.15;;;;;;;12.06;55.77;100282.31;1743357;80;21811;-73
2021/03/31 10:08:07;;;;;;;41.25;21.35;;;;;;;12.07;55.92;100270.18;1770757;80;21855;-73
2021/03/31 10:10:44;;;;;;;65.90;31.35;;;;;;;12.16;56.43;100274.37;1770729;80;21188;-73
2021/03/31 10:13:15;;;;;;;62.20;28.07;;;;;;;12.24;56.74;100277.77;1770850;80;21895;-73
2021/03/31 10:15:58;;;;;;;39.35;23.55;;;;;;;12.31;57.37;100274.03;1770645;80;21188;-72
2021/03/31 10:18:29;;;;;;;41.85;21.80;;;;;;;12.42;56.88;100278.19;1770639;80;20990;-72
2021/03/31 10:21:02;;;;;;;38.55;21.95;;;;;;;12.56;56.76;100277.59;1742949;80;21148;-71
2021/03/31 10:23:35;;;;;;;39.35;20.00;;;;;;;12.66;56.93;100277.09;1770645;80;21133;-74
2021/03/31 10:26:26;;;;;;;38.23;21.12;;;;;;;12.69;56.94;100273.72;1768026;80;21447;-73
2021/03/31 10:29:08;;;;;;;38.00;21.03;;;;;;;12.69;57.01;100268.21;1771047;80;21144;-73
2021/03/31 10:31:39;;;;;;;34.48;21.20;;;;;;;12.67;56.80;100271.28;1757135;80;21343;-72
2021/03/31 10:34:10;;;;;;;38.63;21.00;;;;;;;12.66;56.81;100264.70;1771628;80;21230;-73
2021/03/31 10:48:51;;;;;;;39.70;22.27;;;;;;;12.51;58.01;100260.37;1770921;80;21428;-72
2021/03/31 10:56:27;;;;;;;35.85;20.70;;;;;;;12.44;58.89;100252.53;1770879;80;21902;-66
2021/03/31 10:58:56;;;;;;;35.00;20.37;;;;;;;12.43;59.08;100256.41;1770642;80;21173;-68
2021/03/31 11:01:24;;;;;;;31.12;20.37;;;;;;;12.43;58.87;100245.40;1770818;80;21136;-70
2021/03/31 11:03:52;;;;;;;36.42;20.23;;;;;;;12.47;59.08;100248.34;1770810;80;21129;-70
2021/03/31 11:06:22;;;;;;;42.65;21.20;;;;;;;12.54;59.26;100241.84;1770540;80;21145;-70
2021/03/31 11:08:51;;;;;;;41.35;21.97;;;;;;;12.58;59.24;100237.34;1770577;80;21163;-70
2021/03/31 11:11:20;;;;;;;40.05;21.35;;;;;;;12.63;59.42;100239.16;1730393;80;21854;-71
2021/03/31 11:13:50;;;;;;;44.35;23.07;;;;;;;12.65;59.67;100232.77;1724775;83;21143;-68
2021/03/31 11:16:19;;;;;;;34.10;19.67;;;;;;;12.66;60.09;100228.89;1724852;83;21187;-70
2021/03/31 11:26:55;;;;;;;35.85;20.57;;;;;;;12.83;60.07;100214.65;1724611;83;21889;-69
2021/03/31 11:29:22;;;;;;;41.75;20.65;;;;;;;12.84;60.21;100206.63;1760886;81;21426;-70
2021/03/31 11:31:52;;;;;;;44.75;21.55;;;;;;;12.85;60.44;100209.64;1745163;82;21139;-70
2021/03/31 11:34:19;;;;;;;39.67;22.02;;;;;;;12.87;60.65;100201.87;1760943;81;21434;-69
2021/03/31 11:36:50;;;;;;;35.92;22.37;;;;;;;12.90;60.72;100205.94;1745074;82;21144;-69
2021/03/31 11:39:18;;;;;;;40.52;22.42;;;;;;;12.90;60.55;100199.86;1760916;80;21935;-72
2021/03/31 11:41:46;;;;;;;40.08;21.80;;;;;;;12.87;60.84;100208.76;1745251;82;21147;-72
2021/03/31 11:51:06;;;;;;;40.70;20.92;;;;;;;13.11;61.42;100195.20;1760880;81;21966;-68
2021/03/31 11:53:35;;;;;;;34.78;20.45;;;;;;;13.21;61.14;100188.06;1760831;81;21905;-69
2021/03/31 11:56:06;;;;;;;35.43;19.65;;;;;;;13.33;60.52;100180.53;1745262;82;21763;-70
2021/03/31 11:58:34;;;;;;;43.45;21.62;;;;;;;13.39;59.99;100180.64;1760968;80;21429;-69
2021/03/31 12:01:01;;;;;;;42.90;21.25;;;;;;;13.41;60.10;100180.57;1745103;82;23509;-69
2021/03/31 12:03:29;;;;;;;36.10;21.27;;;;;;;13.44;59.90;100181.88;1731034;81;21365;-69
2021/03/31 12:05:58;;;;;;;41.25;22.05;;;;;;;13.46;59.95;100178.23;1745015;82;21147;-69
2021/03/31 12:08:26;;;;;;;34.55;21.05;;;;;;;13.54;59.84;100180.21;1791699;79;21149;-69
2021/03/31 12:10:56;;;;;;;39.75;22.20;;;;;;;13.62;59.47;100174.47;1754579;80;21412;-72
2021/03/31 12:13:24;;;;;;;33.45;19.15;;;;;;;13.68;59.45;100168.48;1805912;79;21383;-70
2021/03/31 12:15:52;;;;;;;34.20;19.60;;;;;;;13.71;59.92;100172.55;1805939;79;21687;-69
2021/03/31 12:18:20;;;;;;;37.03;21.60;;;;;;;13.73;60.22;100168.91;1805812;79;21447;-72
2021/03/31 12:20:49;;;;;;;34.45;20.68;;;;;;;13.77;60.05;100162.42;1805768;79;21161;-71
2021/03/31 12:23:16;;;;;;;29.65;17.70;;;;;;;13.82;60.30;100166.41;1805817;79;21188;-70
2021/03/31 12:25:45;;;;;;;29.05;16.60;;;;;;;13.83;60.73;100162.52;1805773;79;21902;-70